createdAt,value
2022-12-23T00:01:23.095Z,83.60
2022-12-23T00:03:49.804Z,83.60
2022-12-23T00:06:17.593Z,83.74
2022-12-23T00:08:44.691Z,83.80
2022-12-23T00:11:14.773Z,83.72
2022-12-23T00:13:59.889Z,83.77
2022-12-23T00:16:26.406Z,83.76
2022-12-23T00:18:54.363Z,84.08
2022-12-23T00:21:21.461Z,84.07
2022-12-23T00:23:50.092Z,84.16
2022-12-23T00:26:25.449Z,84.23
2022-12-23T00:28:52.846Z,84.25
2022-12-23T00:31:19.881Z,84.11
2022-12-23T00:33:49.152Z,84.57
2022-12-23T00:36:20.265Z,84.53
2022-12-23T00:39:05.617Z,84.43
2022-12-23T00:41:50.866Z,84.11
2022-12-23T00:44:17.440Z,84.38
2022-12-23T00:46:43.898Z,84.40
2022-12-23T00:49:33.930Z,84.24
2022-12-23T00:52:00.808Z,84.74
2022-12-23T00:54:27.566Z,84.57
2022-12-23T00:56:54.135Z,84.48
2022-12-23T00:59:20.554Z,84.71
2022-12-23T01:02:06.147Z,84.35
2022-12-23T01:04:51.405Z,84.57
2022-12-23T01:07:17.925Z,84.57
2022-12-23T01:09:44.512Z,84.65
2022-12-23T01:12:11.069Z,84.83
2022-12-23T01:14:37.959Z,84.37
2022-12-23T01:17:06.673Z,84.40
2022-12-23T01:19:33.309Z,84.38
2022-12-23T01:21:59.838Z,84.60
2022-12-23T01:24:31.091Z,84.51
2022-12-23T01:26:57.677Z,84.84
2022-12-23T01:29:24.816Z,84.58
2022-12-23T01:31:51.430Z,84.84
2022-12-23T01:34:18.223Z,84.32
2022-12-23T01:36:44.777Z,84.60
2022-12-23T01:39:11.221Z,84.61
2022-12-23T01:41:56.360Z,85.07
2022-12-23T01:45:04.838Z,84.71
2022-12-23T01:48:03.896Z,85.00
2022-12-23T01:50:55.493Z,84.75
2022-12-23T01:53:28.298Z,84.86
2022-12-23T01:55:59.289Z,84.48
2022-12-23T01:58:44.552Z,84.86
2022-12-23T02:01:30.614Z,84.51
2022-12-23T02:04:02.978Z,84.30
2022-12-23T02:09:19.503Z,84.44
2022-12-23T02:12:04.188Z,84.67
2022-12-23T02:15:23.318Z,84.99
2022-12-23T02:18:04.576Z,85.03
2022-12-23T02:20:46.211Z,84.70
2022-12-23T02:23:53.092Z,84.60
2022-12-23T02:26:41.853Z,84.37
2022-12-23T02:29:26.489Z,84.39
2022-12-23T02:32:14.276Z,84.56
2022-12-23T02:34:54.308Z,84.69
2022-12-23T02:37:40.568Z,84.64
2022-12-23T02:40:22.996Z,84.55
2022-12-23T02:43:12.879Z,84.50
2022-12-23T02:46:09.754Z,84.66
2022-12-23T02:48:53.506Z,84.58
2022-12-23T02:51:22.689Z,84.69
2022-12-23T02:53:56.796Z,84.60
2022-12-23T02:56:27.156Z,84.58
2022-12-23T02:58:58.965Z,84.60
2022-12-23T03:01:29.672Z,84.48
2022-12-23T03:03:56.289Z,84.31
2022-12-23T03:06:38.559Z,84.58
2022-12-23T03:09:05.093Z,84.39
2022-12-23T03:11:49.779Z,84.04
2022-12-23T03:14:36.577Z,84.08
2022-12-23T03:17:08.741Z,83.98
2022-12-23T03:19:53.220Z,84.00
2022-12-23T03:22:35.923Z,83.79
2022-12-23T03:25:21.290Z,83.79
2022-12-23T03:28:13.130Z,83.82
2022-12-23T03:30:43.041Z,83.77
2022-12-23T03:33:21.231Z,84.03
2022-12-23T03:35:52.888Z,84.15
2022-12-23T03:38:19.831Z,83.92
2022-12-23T03:40:57.612Z,84.07
2022-12-23T03:43:31.405Z,84.05
2022-12-23T03:46:03.496Z,83.88
2022-12-23T03:48:39.147Z,83.88
2022-12-23T03:51:14.583Z,83.60
2022-12-23T03:53:48.234Z,83.73
2022-12-23T03:56:21.726Z,83.86
2022-12-23T03:59:08.316Z,83.82
2022-12-23T04:01:56.760Z,83.25
2022-12-23T04:04:52.560Z,83.42
2022-12-23T04:07:23.709Z,83.73
2022-12-23T04:09:53.189Z,83.64
2022-12-23T04:12:23.389Z,83.61
2022-12-23T04:14:50.392Z,83.34
2022-12-23T04:17:17.664Z,83.30
2022-12-23T04:19:47.932Z,83.41
2022-12-23T04:22:16.134Z,83.63
2022-12-23T04:24:43.092Z,83.63
2022-12-23T04:27:12.881Z,83.77
2022-12-23T04:29:39.293Z,83.78
2022-12-23T04:32:06.113Z,83.61
2022-12-23T04:34:32.595Z,84.12
2022-12-23T04:36:58.990Z,83.99
2022-12-23T04:39:25.348Z,83.93
2022-12-23T04:41:51.685Z,83.86
2022-12-23T04:44:18.076Z,83.81
2022-12-23T04:46:44.641Z,83.88
2022-12-23T04:49:11.032Z,83.77
2022-12-23T04:51:37.416Z,83.95
2022-12-23T04:54:04.021Z,83.76
2022-12-23T04:56:30.352Z,83.75
2022-12-23T04:58:56.678Z,84.05
2022-12-23T05:01:23.102Z,84.07
2022-12-23T05:03:49.588Z,84.00
2022-12-23T05:06:16.050Z,83.98
2022-12-23T05:08:42.438Z,83.89
2022-12-23T05:11:08.877Z,83.90
2022-12-23T05:13:35.269Z,83.86
2022-12-23T05:16:01.640Z,83.74
2022-12-23T05:18:28.032Z,83.83
2022-12-23T05:20:54.382Z,83.73
2022-12-23T05:23:20.850Z,83.70
2022-12-23T05:25:52.734Z,83.90
2022-12-23T05:28:19.611Z,83.77
2022-12-23T05:30:46.120Z,83.73
2022-12-23T05:33:12.717Z,83.90
2022-12-23T05:35:39.105Z,83.91
2022-12-23T05:38:05.569Z,83.62
2022-12-23T05:40:32.986Z,83.81
2022-12-23T05:42:59.949Z,83.71
2022-12-23T05:45:26.512Z,83.73
2022-12-23T05:47:52.903Z,83.65
2022-12-23T05:50:19.324Z,83.78
2022-12-23T05:52:45.685Z,83.57
2022-12-23T05:55:12.116Z,83.65
2022-12-23T05:57:38.524Z,83.51
2022-12-23T06:00:05.332Z,83.62
2022-12-23T06:02:31.922Z,83.74
2022-12-23T06:04:58.452Z,83.72
2022-12-23T06:07:24.815Z,83.41
2022-12-23T06:09:51.212Z,83.65
2022-12-23T06:12:17.600Z,83.37
2022-12-23T06:14:44.031Z,83.69
2022-12-23T06:17:10.374Z,83.64
2022-12-23T06:19:36.717Z,83.47
2022-12-23T06:22:03.082Z,83.27
2022-12-23T06:24:29.495Z,83.45
2022-12-23T06:26:57.443Z,83.36
2022-12-23T06:29:24.890Z,83.51
2022-12-23T06:31:51.532Z,83.38
2022-12-23T06:34:18.087Z,83.65
2022-12-23T06:36:44.533Z,83.49
2022-12-23T06:39:11.054Z,83.38
2022-12-23T06:41:37.468Z,83.29
2022-12-23T06:44:04.027Z,83.24
2022-12-23T06:46:30.620Z,83.31
2022-12-23T06:48:57.063Z,83.42
2022-12-23T06:51:23.500Z,83.08
2022-12-23T06:53:49.938Z,83.09
2022-12-23T06:56:16.384Z,83.19
2022-12-23T06:58:42.812Z,83.58
2022-12-23T07:01:10.239Z,82.99
2022-12-23T07:03:36.865Z,83.17
2022-12-23T07:06:03.509Z,83.05
2022-12-23T07:08:29.902Z,83.19
2022-12-23T07:11:00.118Z,83.25
2022-12-23T07:13:27.135Z,83.17
2022-12-23T07:15:53.732Z,83.27
2022-12-23T08:29:07.603Z,90.86
2022-12-23T08:31:34.255Z,91.10
2022-12-23T08:34:01.210Z,91.01
2022-12-23T08:36:33.106Z,90.91
2022-12-23T08:39:03.834Z,91.21
2022-12-23T08:41:34.156Z,91.17
2022-12-23T08:44:00.517Z,91.23
2022-12-23T08:46:27.458Z,91.06
2022-12-23T09:02:06.469Z,91.78
2022-12-23T09:04:32.905Z,91.64
2022-12-23T09:06:59.405Z,91.88
2022-12-23T09:09:25.791Z,91.58
2022-12-23T09:11:52.209Z,91.40
2022-12-23T09:14:18.570Z,91.61
2022-12-23T09:16:44.949Z,91.44
2022-12-23T09:19:11.386Z,91.68
2022-12-23T09:21:37.761Z,91.70
2022-12-23T09:24:04.468Z,91.41
2022-12-23T09:26:31.677Z,91.43
2022-12-23T09:28:58.887Z,91.64
2022-12-23T09:31:30.805Z,91.46
2022-12-23T09:34:00.664Z,91.76
2022-12-23T09:36:27.051Z,91.66
2022-12-23T09:38:54.819Z,91.56
2022-12-23T09:41:39.582Z,91.94
2022-12-23T09:44:23.691Z,91.92
2022-12-23T09:47:05.805Z,91.77
2022-12-23T09:49:33.700Z,91.94
2022-12-23T09:52:04.714Z,91.66
2022-12-23T09:54:41.726Z,91.97
2022-12-23T09:57:22.719Z,91.95
2022-12-23T10:00:04.116Z,91.91
2022-12-23T10:02:30.611Z,91.80
2022-12-23T10:05:05.499Z,91.86
2022-12-23T10:07:58.155Z,91.91
2022-12-23T10:10:39.413Z,92.37
2022-12-23T10:13:11.249Z,92.18
2022-12-23T10:34:38.290Z,92.55
2022-12-23T10:55:02.190Z,92.80
2022-12-23T10:57:30.064Z,93.03
2022-12-23T10:59:57.480Z,92.74
2022-12-23T11:02:24.034Z,92.84
2022-12-23T11:04:50.825Z,92.91
2022-12-23T11:07:45.158Z,92.67
2022-12-23T11:10:19.330Z,92.80
2022-12-23T11:12:51.326Z,92.95
2022-12-23T11:15:27.002Z,92.71
2022-12-23T11:18:16.961Z,92.61
2022-12-23T11:20:46.366Z,92.57
2022-12-23T11:23:27.085Z,92.94
2022-12-23T11:26:09.445Z,92.96
2022-12-23T11:28:39.902Z,92.72
2022-12-23T11:31:11.794Z,92.74
2022-12-23T11:33:48.829Z,92.91
2022-12-23T11:36:23.898Z,93.23
2022-12-23T11:39:04.243Z,93.21
2022-12-23T11:41:37.307Z,93.13
2022-12-23T11:44:12.262Z,92.90
2022-12-23T11:46:38.656Z,93.42
2022-12-23T11:49:27.212Z,93.11
2022-12-23T11:52:09.516Z,93.25
2022-12-23T11:54:36.733Z,93.27
2022-12-23T11:57:07.801Z,93.10
2022-12-23T11:59:38.602Z,93.09
2022-12-23T12:02:15.936Z,93.21
2022-12-23T12:04:42.723Z,93.27
2022-12-23T12:07:14.332Z,93.31
2022-12-23T12:09:43.375Z,93.62
2022-12-23T12:12:16.912Z,93.40
2022-12-23T12:14:47.040Z,93.32
2022-12-23T12:17:32.777Z,93.48
2022-12-23T12:20:05.810Z,93.40
2022-12-23T12:22:38.086Z,93.63
2022-12-23T12:25:10.811Z,93.43
2022-12-23T12:27:40.213Z,93.58
2022-12-23T12:30:15.890Z,93.69
2022-12-23T12:32:45.023Z,93.45
2022-12-23T12:35:43.624Z,93.40
2022-12-23T12:38:23.969Z,93.22
2022-12-23T12:40:56.740Z,93.28
2022-12-23T12:43:33.287Z,93.35
2022-12-23T12:46:32.669Z,93.69
2022-12-23T12:49:37.115Z,93.53
2022-12-23T12:52:11.814Z,93.35
2022-12-23T12:54:48.978Z,93.72
2022-12-23T12:57:17.788Z,93.25
2022-12-23T12:59:45.256Z,93.30
2022-12-23T13:02:22.734Z,93.25
2022-12-23T13:05:10.508Z,93.65
2022-12-23T13:07:45.613Z,93.54
2022-12-23T13:10:22.059Z,93.44
2022-12-23T13:13:00.558Z,93.41
2022-12-23T13:15:59.291Z,93.30
2022-12-23T13:18:40.050Z,93.25
2022-12-23T13:21:16.842Z,93.67
2022-12-23T13:24:03.607Z,93.45
2022-12-23T13:26:37.942Z,93.51
2022-12-23T13:29:38.206Z,93.40
2022-12-23T13:32:21.781Z,93.42
2022-12-23T13:34:57.161Z,93.40
2022-12-23T13:37:42.266Z,93.32
2022-12-23T13:40:22.267Z,93.52
2022-12-23T13:42:57.396Z,93.34
2022-12-23T13:45:31.830Z,93.61
2022-12-23T13:48:24.685Z,93.51
2022-12-23T13:51:06.680Z,93.49
2022-12-23T13:54:03.962Z,93.39
2022-12-23T13:56:50.436Z,93.69
2022-12-23T13:59:17.087Z,93.57
2022-12-23T14:01:49.548Z,93.81
2022-12-23T14:04:33.556Z,93.47
2022-12-23T14:07:03.323Z,93.57
2022-12-23T14:09:35.300Z,93.67
2022-12-23T14:12:19.410Z,93.60
2022-12-23T14:14:58.787Z,93.55
2022-12-23T14:17:44.518Z,93.37
2022-12-23T14:20:19.696Z,93.35
2022-12-23T14:23:18.317Z,93.49
2022-12-23T14:25:50.657Z,93.40
2022-12-23T14:28:42.151Z,93.37
2022-12-23T14:31:30.020Z,93.46
2022-12-23T14:34:24.935Z,93.43
2022-12-23T14:37:24.160Z,93.59
2022-12-23T14:39:51.426Z,93.43
2022-12-23T14:42:42.185Z,93.57
2022-12-23T14:45:29.436Z,93.50
2022-12-23T14:47:55.932Z,93.65
2022-12-23T14:50:39.535Z,93.65
2022-12-23T14:53:26.278Z,93.58
2022-12-23T14:56:10.695Z,93.69
2022-12-23T14:58:45.959Z,93.72
2022-12-23T15:01:16.952Z,93.83
2022-12-23T15:03:47.754Z,93.50
2022-12-23T15:06:33.334Z,93.43
2022-12-23T15:09:01.465Z,93.66
2022-12-23T15:11:31.447Z,93.26
2022-12-23T15:14:01.433Z,93.41
2022-12-23T15:16:35.183Z,93.35
2022-12-23T15:19:16.464Z,93.33
2022-12-23T15:21:46.824Z,93.70
2022-12-23T15:24:20.493Z,93.51
2022-12-23T15:27:17.825Z,93.54
2022-12-23T15:29:43.667Z,93.82
2022-12-23T15:32:10.929Z,93.45
2022-12-23T15:34:37.701Z,93.46
2022-12-23T15:37:10.952Z,93.61
2022-12-23T15:39:41.213Z,93.66
2022-12-23T15:42:26.537Z,93.44
2022-12-23T15:44:53.547Z,93.52
2022-12-23T15:47:26.135Z,93.48
2022-12-23T15:49:52.609Z,93.25
2022-12-23T15:52:20.568Z,93.51
2022-12-23T15:55:02.202Z,93.68
2022-12-23T15:57:30.271Z,93.63
2022-12-23T15:59:58.744Z,93.19
2022-12-23T16:02:59.043Z,93.41
2022-12-23T16:05:12.387Z,93.23
2022-12-23T16:07:41.728Z,93.36
2022-12-23T16:10:15.419Z,93.53
2022-12-23T16:12:42.722Z,93.66
2022-12-23T16:15:27.365Z,93.48
2022-12-23T16:18:20.301Z,93.16
2022-12-23T16:21:00.750Z,93.24
2022-12-23T16:23:33.682Z,93.59
2022-12-23T16:26:01.645Z,93.31
2022-12-23T16:28:35.664Z,93.37
2022-12-23T16:31:06.412Z,93.70
2022-12-23T16:33:55.321Z,93.77
2022-12-23T16:36:33.477Z,93.51
2022-12-23T16:39:12.914Z,93.49
2022-12-23T16:41:39.552Z,93.41
2022-12-23T16:44:06.080Z,93.51
2022-12-23T16:46:36.558Z,93.14
2022-12-23T16:49:06.002Z,93.27
2022-12-23T16:51:34.089Z,93.34
2022-12-23T16:54:01.412Z,93.08
2022-12-23T16:56:31.749Z,93.36
2022-12-23T16:58:58.182Z,93.32
2022-12-23T17:01:30.998Z,93.21
2022-12-23T17:03:57.482Z,93.11
2022-12-23T17:06:25.205Z,93.23
2022-12-23T17:08:53.151Z,93.28
2022-12-23T17:11:35.897Z,93.06
2022-12-23T17:14:06.680Z,93.51
2022-12-23T17:16:35.627Z,93.48
2022-12-23T17:19:02.010Z,93.29
2022-12-23T17:21:34.873Z,93.47
2022-12-23T17:24:13.928Z,93.24
2022-12-23T17:26:40.339Z,93.14
2022-12-23T17:29:06.857Z,93.33
2022-12-23T17:31:34.091Z,93.53
2022-12-23T17:34:01.215Z,93.49
2022-12-23T17:36:27.820Z,93.75
2022-12-23T17:38:54.431Z,93.96
2022-12-23T17:41:32.108Z,93.62
2022-12-23T17:43:59.467Z,93.76
2022-12-23T17:46:26.349Z,93.64
2022-12-23T17:48:53.267Z,93.56
2022-12-23T17:51:22.515Z,93.67
2022-12-23T17:53:56.848Z,93.81
2022-12-23T17:56:24.523Z,94.14
2022-12-23T17:58:51.315Z,93.96
2022-12-23T18:01:24.246Z,94.19
2022-12-23T18:03:50.770Z,94.38
2022-12-23T18:06:21.524Z,94.39
2022-12-23T18:08:48.600Z,94.59
2022-12-23T18:11:20.594Z,94.84
2022-12-23T18:13:48.848Z,94.89
2022-12-23T18:16:15.322Z,95.05
2022-12-23T18:18:46.195Z,94.87
2022-12-23T18:21:27.367Z,94.70
2022-12-23T18:23:57.149Z,94.91
2022-12-23T18:26:23.641Z,94.96
2022-12-23T18:28:51.299Z,95.35
2022-12-23T18:31:21.928Z,95.02
2022-12-23T18:33:48.540Z,95.11
2022-12-23T18:36:33.182Z,95.41
2022-12-23T18:39:00.199Z,95.36
2022-12-23T18:41:27.907Z,95.64
2022-12-23T18:43:55.050Z,95.61
2022-12-23T18:46:21.984Z,95.62
2022-12-23T18:48:48.634Z,95.62
2022-12-23T18:51:17.259Z,95.43
2022-12-23T18:53:43.986Z,95.66
2022-12-23T18:56:14.053Z,95.47
2022-12-23T18:58:40.465Z,95.35
2022-12-23T19:01:14.024Z,95.35
2022-12-23T19:03:41.183Z,95.48
2022-12-23T19:06:09.084Z,95.30
2022-12-23T19:08:37.154Z,95.43
2022-12-23T19:11:14.350Z,95.50
2022-12-23T19:13:41.034Z,95.06
2022-12-23T19:16:07.943Z,95.17
2022-12-23T19:18:34.420Z,95.31
2022-12-23T19:21:04.327Z,95.31
2022-12-23T19:23:30.712Z,95.50
2022-12-23T19:25:57.131Z,95.42
2022-12-23T19:28:23.752Z,95.23
2022-12-23T19:30:50.500Z,95.21
2022-12-23T19:33:17.007Z,95.24
2022-12-23T19:35:44.059Z,95.31
2022-12-23T19:38:10.970Z,95.12
2022-12-23T19:40:37.790Z,94.96
2022-12-23T19:43:04.523Z,95.10
2022-12-23T19:45:30.984Z,95.02
2022-12-23T19:47:57.499Z,95.02
2022-12-23T19:50:24.047Z,94.84
2022-12-23T19:52:51.582Z,94.99
2022-12-23T19:55:17.958Z,94.83
2022-12-23T19:57:44.369Z,94.82
2022-12-23T20:00:11.266Z,94.73
2022-12-23T20:02:37.824Z,95.07
2022-12-23T20:05:04.706Z,94.73
2022-12-23T20:07:31.075Z,94.75
2022-12-23T20:09:57.439Z,94.82
2022-12-23T20:12:25.311Z,94.94
2022-12-23T20:14:51.857Z,94.95
2022-12-23T20:17:18.175Z,94.77
2022-12-23T20:19:46.261Z,95.07
2022-12-23T20:22:12.845Z,94.77
2022-12-23T20:24:39.222Z,94.94
2022-12-23T20:27:10.928Z,95.17
2022-12-23T20:29:38.350Z,94.88
2022-12-23T20:32:04.908Z,94.72
2022-12-23T20:34:38.394Z,94.99
2022-12-23T20:37:05.380Z,94.95
2022-12-23T20:39:31.730Z,94.85
2022-12-23T20:41:58.125Z,94.58
2022-12-23T20:44:34.643Z,94.77
2022-12-23T20:47:02.742Z,94.85
2022-12-23T20:49:29.313Z,94.44
2022-12-23T20:51:55.749Z,94.49
2022-12-23T20:54:27.919Z,94.42
2022-12-23T20:56:58.559Z,94.22
2022-12-23T20:59:24.999Z,94.01
2022-12-23T21:01:52.115Z,94.16
2022-12-23T21:04:18.881Z,94.00
2022-12-23T21:06:45.482Z,93.66
2022-12-23T21:09:14.549Z,93.50
2022-12-23T21:11:43.957Z,93.63
2022-12-23T21:14:11.259Z,93.26
2022-12-23T21:16:38.642Z,93.09
2022-12-23T21:19:07.143Z,93.08
2022-12-23T21:21:33.708Z,92.79
2022-12-23T21:24:04.060Z,92.78
2022-12-23T21:26:31.857Z,92.80
2022-12-23T21:29:00.405Z,92.43
2022-12-23T21:31:28.372Z,91.97
2022-12-23T21:33:55.289Z,92.00
2022-12-23T21:36:24.851Z,91.68
2022-12-23T21:38:52.064Z,91.46
2022-12-23T21:41:21.841Z,91.43
2022-12-23T21:43:49.672Z,91.18
2022-12-23T21:46:18.923Z,91.08
2022-12-23T21:48:46.018Z,91.29
2022-12-23T21:51:15.121Z,90.85
2022-12-23T21:53:42.875Z,91.00
2022-12-23T21:56:14.642Z,90.82
2022-12-23T21:58:41.777Z,90.86
2022-12-23T22:01:09.423Z,90.40
2022-12-23T22:03:36.844Z,90.09
2022-12-23T22:06:10.194Z,89.92
2022-12-23T22:08:37.425Z,90.02
2022-12-23T22:11:12.079Z,89.97
2022-12-23T22:13:38.784Z,90.38
2022-12-23T22:16:09.871Z,90.43
2022-12-23T22:18:37.375Z,90.72
2022-12-23T22:21:05.339Z,91.20
2022-12-23T22:23:31.749Z,91.24
2022-12-23T22:25:58.273Z,91.64
2022-12-23T22:28:24.633Z,91.21
2022-12-23T22:30:51.141Z,91.46
2022-12-23T22:33:17.563Z,91.30
2022-12-23T22:35:52.885Z,91.16
2022-12-23T22:38:19.214Z,91.12
2022-12-23T22:40:49.303Z,91.28
2022-12-23T22:43:15.702Z,90.98
2022-12-23T22:45:42.048Z,90.60
2022-12-23T22:48:08.569Z,90.80
2022-12-23T22:50:35.192Z,90.72
2022-12-23T22:53:01.544Z,91.03
2022-12-23T22:55:27.904Z,90.72
2022-12-23T22:57:54.284Z,90.88
2022-12-23T23:00:20.952Z,90.43
2022-12-23T23:02:47.455Z,90.42
2022-12-23T23:05:13.889Z,90.29
2022-12-23T23:07:40.374Z,90.26
2022-12-23T23:10:07.487Z,90.07
2022-12-23T23:12:33.913Z,89.98
2022-12-23T23:15:00.367Z,89.50
2022-12-23T23:17:28.200Z,89.31
2022-12-23T23:19:55.106Z,89.05
2022-12-23T23:22:23.355Z,88.44
2022-12-23T23:24:49.884Z,88.40
2022-12-23T23:27:16.382Z,88.25
2022-12-23T23:29:42.790Z,88.04
2022-12-23T23:32:09.919Z,87.97
2022-12-23T23:34:36.903Z,87.68
2022-12-23T23:37:04.714Z,87.34
2022-12-23T23:39:31.148Z,86.88
2022-12-23T23:41:57.615Z,86.91
2022-12-23T23:44:24.025Z,86.82
2022-12-23T23:46:50.406Z,86.98
2022-12-23T23:49:16.763Z,86.92
2022-12-23T23:51:43.216Z,87.27
2022-12-23T23:54:09.652Z,86.93
2022-12-23T23:56:39.128Z,87.17
2022-12-23T23:59:06.654Z,87.01
